• pl
  • eng

Awiacja
WIADOMOŚCI
ostatnia aktualizacja: 26.03.2018 14:15
Szanowni Państwo,

uprzejmie informujemy, że od dnia 29 marca br., od godziny 08.30 UTC, IMGW-PIB wprowadza zmianę częstotliwości wydawania prognoz TAF FT dla lotnisk EPWA, EPKK i EPWR. Od tego terminu prognozy będą publikowane co 3 godziny. Okres ich ważności nie ulega zmianie.

Kliknij na pogrubioną czerwoną nazwę, aby odkodować depeszę. 15:31 23.04.2018
  • WIND
  • SIGNIFICANT EURO
  • SIGNIFICANT
  • SIGMET
  • AIRMET
  • TAF FC
  • TAF FT
  • METAR GG30
  • METAR GG00


METAR EPBY 231330Z 24012KT 9999 FEW045 22/12 Q1008 =

METAR EPGD 231330Z 20005KT 100V270 CAVOK 19/09 Q1008 =

METAR EPKK 231330Z 23008KT 200V260 CAVOK 23/11 Q1011 =

METAR EPKT 231330Z 24011KT CAVOK 24/08 Q1011 =

METAR EPLB 231330Z 22006KT 170V250 CAVOK 20/06 Q1012 =

METAR EPLL 231330Z VRB07KT CAVOK 23/11 Q1010 =

METAR EPMO 231330Z 17008KT 130V220 CAVOK 21/05 Q1010 =

METAR EPPO 231330Z 23004KT CAVOK 20/14 Q1010 R10/29//95 =

METAR EPRA 231330Z 15007KT CAVOK 20/08 Q1011=

METAR EPRZ 231330Z 20005KT 160V250 CAVOK 21/06 Q1012 =

METAR EPSC 231330Z 35011KT 9999 FEW037CB SCT042 17/13 Q1009 =

METAR EPSY 231330Z 19008KT 160V220 CAVOK 18/05 Q1010=

METAR EPWA 231330Z 17005KT 130V200 CAVOK 21/06 Q1011 NOSIG=

METAR EPWR 231330Z 34016KT 7000 2000W +TSRA BKN040CB 19/13 Q1011 =

METAR EPZG 231330Z NIL=
 METAR EPSC
Lokalizacja:EPSC Szczecin Goleniów
Czas:13:30 UTC
Średni kierunek wiatru:350 °
Średnia prędkość wiatru:11 węzłów
Widzialność:10 km i więcej
Pierwsza warstwa chmur:1/8 do 2/8, wysokość podstawy 3700 FT
Chmury konwekcyjne :cumulonimbus
Druga warstwa chmur:3/8 do 4/8, wysokość podstawy 4200 FT
Temperatura powietrza:17 °C
Temperatura punktu rosy:13 °C
Ciśnienie QNH:1009 hPa
Awiacja.imgw.pl jest pogodowym serwisem informacyjnym
Instytutu Meteorologii i Gospodarki Wodnej Państwowego Instytutu Badawczego.
Copyright IMGW PIB 2009-2011© Wszelkie prawa zastrzeżone.